sensor_id;sensor_type;location;lat;lon;timestamp;P1;durP1;ratioP1;P2;durP2;ratioP2
51292;SDS011;37377;45.186;9.778;2023-05-20T00:01:48;32.47;;;21.98;;
51292;SDS011;37377;45.186;9.778;2023-05-20T00:04:18;30.95;;;22.23;;
51292;SDS011;37377;45.186;9.778;2023-05-20T00:06:46;22.85;;;20.08;;
51292;SDS011;37377;45.186;9.778;2023-05-20T00:09:13;26.48;;;21.20;;
51292;SDS011;37377;45.186;9.778;2023-05-20T00:11:40;28.98;;;21.25;;
51292;SDS011;37377;45.186;9.778;2023-05-20T00:14:07;25.67;;;21.08;;
51292;SDS011;37377;45.186;9.778;2023-05-20T00:16:34;29.35;;;21.38;;
51292;SDS011;37377;45.186;9.778;2023-05-20T00:19:01;27.90;;;21.73;;
51292;SDS011;37377;45.186;9.778;2023-05-20T00:21:28;29.25;;;21.45;;
51292;SDS011;37377;45.186;9.778;2023-05-20T00:23:55;31.73;;;20.42;;
51292;SDS011;37377;45.186;9.778;2023-05-20T00:26:22;33.28;;;23.10;;
51292;SDS011;37377;45.186;9.778;2023-05-20T00:28:53;29.63;;;23.20;;
51292;SDS011;37377;45.186;9.778;2023-05-20T00:31:20;30.17;;;21.30;;
51292;SDS011;37377;45.186;9.778;2023-05-20T00:33:47;29.70;;;21.45;;
51292;SDS011;37377;45.186;9.778;2023-05-20T00:36:18;25.35;;;21.63;;
51292;SDS011;37377;45.186;9.778;2023-05-20T00:38:45;30.40;;;20.35;;
51292;SDS011;37377;45.186;9.778;2023-05-20T00:41:12;27.70;;;21.20;;
51292;SDS011;37377;45.186;9.778;2023-05-20T00:43:39;29.00;;;20.65;;
51292;SDS011;37377;45.186;9.778;2023-05-20T00:46:07;29.95;;;20.17;;
51292;SDS011;37377;45.186;9.778;2023-05-20T00:48:39;22.23;;;18.02;;
51292;SDS011;37377;45.186;9.778;2023-05-20T00:51:08;21.90;;;18.35;;
51292;SDS011;37377;45.186;9.778;2023-05-20T00:53:36;24.73;;;18.58;;
51292;SDS011;37377;45.186;9.778;2023-05-20T00:56:03;23.60;;;18.55;;
51292;SDS011;37377;45.186;9.778;2023-05-20T00:58:30;22.63;;;18.05;;
51292;SDS011;37377;45.186;9.778;2023-05-20T01:00:58;21.33;;;18.08;;
51292;SDS011;37377;45.186;9.778;2023-05-20T01:03:25;22.48;;;17.35;;
51292;SDS011;37377;45.186;9.778;2023-05-20T01:05:53;19.75;;;17.70;;
51292;SDS011;37377;45.186;9.778;2023-05-20T01:08:24;22.98;;;17.63;;
51292;SDS011;37377;45.186;9.778;2023-05-20T01:10:57;27.13;;;18.88;;
51292;SDS011;37377;45.186;9.778;2023-05-20T01:13:31;24.05;;;18.30;;
51292;SDS011;37377;45.186;9.778;2023-05-20T01:16:00;25.23;;;18.30;;
51292;SDS011;37377;45.186;9.778;2023-05-20T01:18:29;22.38;;;17.25;;
51292;SDS011;37377;45.186;9.778;2023-05-20T01:20:57;19.55;;;17.45;;
51292;SDS011;37377;45.186;9.778;2023-05-20T01:23:48;18.73;;;16.70;;
51292;SDS011;37377;45.186;9.778;2023-05-20T01:26:14;19.35;;;17.17;;
51292;SDS011;37377;45.186;9.778;2023-05-20T01:28:42;19.80;;;16.85;;
51292;SDS011;37377;45.186;9.778;2023-05-20T01:31:22;24.83;;;17.10;;
51292;SDS011;37377;45.186;9.778;2023-05-20T01:33:54;18.70;;;16.30;;
51292;SDS011;37377;45.186;9.778;2023-05-20T01:36:27;19.10;;;16.25;;
51292;SDS011;37377;45.186;9.778;2023-05-20T01:38:54;19.00;;;15.57;;
51292;SDS011;37377;45.186;9.778;2023-05-20T01:41:22;18.80;;;15.13;;
51292;SDS011;37377;45.186;9.778;2023-05-20T01:43:52;20.10;;;16.25;;
51292;SDS011;37377;45.186;9.778;2023-05-20T01:46:19;18.50;;;15.40;;
51292;SDS011;37377;45.186;9.778;2023-05-20T01:51:25;20.02;;;15.32;;
51292;SDS011;37377;45.186;9.778;2023-05-20T01:53:53;16.77;;;15.20;;
51292;SDS011;37377;45.186;9.778;2023-05-20T01:56:20;17.95;;;14.73;;
51292;SDS011;37377;45.186;9.778;2023-05-20T01:58:48;20.95;;;15.52;;
51292;SDS011;37377;45.186;9.778;2023-05-20T02:01:15;21.98;;;15.38;;
51292;SDS011;37377;45.186;9.778;2023-05-20T02:03:42;20.33;;;15.20;;
51292;SDS011;37377;45.186;9.778;2023-05-20T02:06:09;20.15;;;14.82;;
51292;SDS011;37377;45.186;9.778;2023-05-20T02:08:37;19.60;;;15.75;;
51292;SDS011;37377;45.186;9.778;2023-05-20T02:11:07;19.33;;;15.95;;
51292;SDS011;37377;45.186;9.778;2023-05-20T02:13:35;21.08;;;15.40;;
51292;SDS011;37377;45.186;9.778;2023-05-20T02:16:03;17.23;;;15.52;;
51292;SDS011;37377;45.186;9.778;2023-05-20T02:19:02;20.25;;;15.88;;
51292;SDS011;37377;45.186;9.778;2023-05-20T02:21:29;19.48;;;16.73;;
51292;SDS011;37377;45.186;9.778;2023-05-20T02:24:34;22.92;;;17.15;;
51292;SDS011;37377;45.186;9.778;2023-05-20T02:27:01;21.92;;;17.48;;
51292;SDS011;37377;45.186;9.778;2023-05-20T02:29:32;21.35;;;17.60;;
51292;SDS011;37377;45.186;9.778;2023-05-20T02:31:59;24.50;;;17.55;;
51292;SDS011;37377;45.186;9.778;2023-05-20T02:34:27;29.35;;;18.63;;
51292;SDS011;37377;45.186;9.778;2023-05-20T02:36:56;22.70;;;19.00;;
51292;SDS011;37377;45.186;9.778;2023-05-20T02:39:23;20.55;;;18.45;;
51292;SDS011;37377;45.186;9.778;2023-05-20T02:42:05;23.63;;;18.35;;
51292;SDS011;37377;45.186;9.778;2023-05-20T02:44:32;21.52;;;18.17;;
51292;SDS011;37377;45.186;9.778;2023-05-20T02:46:58;22.70;;;18.75;;
51292;SDS011;37377;45.186;9.778;2023-05-20T02:49:26;22.88;;;17.75;;
51292;SDS011;37377;45.186;9.778;2023-05-20T02:51:54;23.15;;;18.85;;
51292;SDS011;37377;45.186;9.778;2023-05-20T02:54:21;25.58;;;19.55;;
51292;SDS011;37377;45.186;9.778;2023-05-20T02:56:49;20.25;;;18.17;;
51292;SDS011;37377;45.186;9.778;2023-05-20T02:59:16;22.45;;;20.10;;
51292;SDS011;37377;45.186;9.778;2023-05-20T03:01:43;27.75;;;20.67;;
51292;SDS011;37377;45.186;9.778;2023-05-20T03:04:11;24.35;;;21.05;;
51292;SDS011;37377;45.186;9.778;2023-05-20T03:06:38;24.75;;;21.88;;
51292;SDS011;37377;45.186;9.778;2023-05-20T03:09:09;32.03;;;23.17;;
51292;SDS011;37377;45.186;9.778;2023-05-20T03:11:38;35.35;;;24.05;;
51292;SDS011;37377;45.186;9.778;2023-05-20T03:14:05;32.92;;;23.48;;
51292;SDS011;37377;45.186;9.778;2023-05-20T03:16:43;33.17;;;25.40;;
51292;SDS011;37377;45.186;9.778;2023-05-20T03:19:11;34.40;;;25.40;;
51292;SDS011;37377;45.186;9.778;2023-05-20T03:21:38;31.17;;;25.73;;
51292;SDS011;37377;45.186;9.778;2023-05-20T03:24:05;31.77;;;26.20;;
51292;SDS011;37377;45.186;9.778;2023-05-20T03:26:32;34.47;;;25.05;;
51292;SDS011;37377;45.186;9.778;2023-05-20T03:29:06;31.42;;;24.13;;
51292;SDS011;37377;45.186;9.778;2023-05-20T03:31:33;36.05;;;25.30;;
51292;SDS011;37377;45.186;9.778;2023-05-20T03:34:00;32.65;;;25.48;;
51292;SDS011;37377;45.186;9.778;2023-05-20T03:36:27;36.00;;;26.52;;
51292;SDS011;37377;45.186;9.778;2023-05-20T03:38:55;33.42;;;25.75;;
51292;SDS011;37377;45.186;9.778;2023-05-20T03:41:22;36.92;;;25.60;;
51292;SDS011;37377;45.186;9.778;2023-05-20T03:43:50;31.52;;;25.95;;
51292;SDS011;37377;45.186;9.778;2023-05-20T03:46:17;29.25;;;25.75;;
51292;SDS011;37377;45.186;9.778;2023-05-20T03:48:44;36.17;;;26.13;;
51292;SDS011;37377;45.186;9.778;2023-05-20T03:51:15;31.13;;;26.02;;
51292;SDS011;37377;45.186;9.778;2023-05-20T03:53:44;31.10;;;26.02;;
51292;SDS011;37377;45.186;9.778;2023-05-20T03:56:11;36.83;;;26.17;;
51292;SDS011;37377;45.186;9.778;2023-05-20T03:58:39;30.13;;;25.95;;
51292;SDS011;37377;45.186;9.778;2023-05-20T04:01:07;30.95;;;25.00;;
51292;SDS011;37377;45.186;9.778;2023-05-20T04:03:37;32.35;;;26.48;;
51292;SDS011;37377;45.186;9.778;2023-05-20T04:06:05;34.08;;;26.33;;
51292;SDS011;37377;45.186;9.778;2023-05-20T04:08:32;33.05;;;27.30;;
51292;SDS011;37377;45.186;9.778;2023-05-20T04:11:02;33.35;;;27.85;;
51292;SDS011;37377;45.186;9.778;2023-05-20T04:13:29;37.83;;;27.23;;
51292;SDS011;37377;45.186;9.778;2023-05-20T04:15:56;37.85;;;30.15;;
51292;SDS011;37377;45.186;9.778;2023-05-20T04:18:24;34.05;;;27.50;;
51292;SDS011;37377;45.186;9.778;2023-05-20T04:20:56;37.78;;;27.85;;
51292;SDS011;37377;45.186;9.778;2023-05-20T04:23:23;34.80;;;26.65;;
51292;SDS011;37377;45.186;9.778;2023-05-20T04:25:50;35.65;;;27.65;;
51292;SDS011;37377;45.186;9.778;2023-05-20T04:28:17;39.28;;;28.85;;
51292;SDS011;37377;45.186;9.778;2023-05-20T04:30:47;42.70;;;29.13;;
51292;SDS011;37377;45.186;9.778;2023-05-20T04:33:14;41.50;;;29.20;;
51292;SDS011;37377;45.186;9.778;2023-05-20T04:35:45;35.80;;;28.75;;
51292;SDS011;37377;45.186;9.778;2023-05-20T04:38:14;42.28;;;29.35;;
51292;SDS011;37377;45.186;9.778;2023-05-20T04:40:44;32.40;;;27.50;;
51292;SDS011;37377;45.186;9.778;2023-05-20T04:43:13;33.47;;;28.27;;
51292;SDS011;37377;45.186;9.778;2023-05-20T04:45:41;35.20;;;28.30;;
51292;SDS011;37377;45.186;9.778;2023-05-20T04:48:08;38.13;;;29.70;;
51292;SDS011;37377;45.186;9.778;2023-05-20T04:50:36;32.47;;;28.70;;
51292;SDS011;37377;45.186;9.778;2023-05-20T04:53:05;34.55;;;28.27;;
51292;SDS011;37377;45.186;9.778;2023-05-20T04:55:33;33.35;;;27.98;;
51292;SDS011;37377;45.186;9.778;2023-05-20T04:58:03;34.42;;;27.42;;
51292;SDS011;37377;45.186;9.778;2023-05-20T05:00:30;37.35;;;28.58;;
51292;SDS011;37377;45.186;9.778;2023-05-20T05:02:57;37.17;;;28.45;;
51292;SDS011;37377;45.186;9.778;2023-05-20T05:05:25;31.75;;;27.50;;
51292;SDS011;37377;45.186;9.778;2023-05-20T05:07:52;33.00;;;28.23;;
51292;SDS011;37377;45.186;9.778;2023-05-20T05:10:20;30.45;;;27.25;;
51292;SDS011;37377;45.186;9.778;2023-05-20T05:12:49;33.97;;;26.45;;
51292;SDS011;37377;45.186;9.778;2023-05-20T05:15:16;32.95;;;28.27;;
51292;SDS011;37377;45.186;9.778;2023-05-20T05:17:43;32.85;;;27.55;;
51292;SDS011;37377;45.186;9.778;2023-05-20T05:20:33;31.85;;;27.77;;
51292;SDS011;37377;45.186;9.778;2023-05-20T05:23:01;36.25;;;27.63;;
51292;SDS011;37377;45.186;9.778;2023-05-20T05:25:43;29.92;;;26.90;;
51292;SDS011;37377;45.186;9.778;2023-05-20T05:28:10;35.95;;;28.92;;
51292;SDS011;37377;45.186;9.778;2023-05-20T05:30:37;30.85;;;26.67;;
51292;SDS011;37377;45.186;9.778;2023-05-20T05:33:04;33.63;;;28.13;;
51292;SDS011;37377;45.186;9.778;2023-05-20T05:35:32;32.08;;;25.73;;
51292;SDS011;37377;45.186;9.778;2023-05-20T05:37:59;33.97;;;28.05;;
51292;SDS011;37377;45.186;9.778;2023-05-20T05:40:28;29.33;;;26.08;;
51292;SDS011;37377;45.186;9.778;2023-05-20T05:42:55;30.50;;;26.02;;
51292;SDS011;37377;45.186;9.778;2023-05-20T05:45:23;30.35;;;26.95;;
51292;SDS011;37377;45.186;9.778;2023-05-20T05:47:51;34.70;;;27.30;;
51292;SDS011;37377;45.186;9.778;2023-05-20T05:50:19;36.47;;;27.60;;
51292;SDS011;37377;45.186;9.778;2023-05-20T05:52:46;34.28;;;27.80;;
51292;SDS011;37377;45.186;9.778;2023-05-20T05:55:13;29.50;;;25.67;;
51292;SDS011;37377;45.186;9.778;2023-05-20T05:57:41;32.13;;;26.48;;
51292;SDS011;37377;45.186;9.778;2023-05-20T06:00:14;37.03;;;25.83;;
51292;SDS011;37377;45.186;9.778;2023-05-20T06:02:44;30.30;;;26.58;;
51292;SDS011;37377;45.186;9.778;2023-05-20T06:05:25;33.85;;;25.00;;
51292;SDS011;37377;45.186;9.778;2023-05-20T06:07:57;29.90;;;26.80;;
51292;SDS011;37377;45.186;9.778;2023-05-20T06:10:24;36.92;;;27.13;;
51292;SDS011;37377;45.186;9.778;2023-05-20T06:12:51;33.80;;;26.77;;
51292;SDS011;37377;45.186;9.778;2023-05-20T06:15:18;31.13;;;27.10;;
51292;SDS011;37377;45.186;9.778;2023-05-20T06:18:01;35.10;;;25.65;;
51292;SDS011;37377;45.186;9.778;2023-05-20T06:20:29;30.60;;;25.75;;
51292;SDS011;37377;45.186;9.778;2023-05-20T06:22:57;31.30;;;26.80;;
51292;SDS011;37377;45.186;9.778;2023-05-20T06:25:32;31.25;;;27.33;;
51292;SDS011;37377;45.186;9.778;2023-05-20T06:28:00;36.05;;;27.73;;
51292;SDS011;37377;45.186;9.778;2023-05-20T06:30:27;35.75;;;26.85;;
51292;SDS011;37377;45.186;9.778;2023-05-20T06:32:54;36.13;;;26.23;;
51292;SDS011;37377;45.186;9.778;2023-05-20T06:35:21;29.88;;;26.60;;
51292;SDS011;37377;45.186;9.778;2023-05-20T06:37:48;35.25;;;26.75;;
51292;SDS011;37377;45.186;9.778;2023-05-20T06:40:16;34.50;;;25.98;;
51292;SDS011;37377;45.186;9.778;2023-05-20T06:42:43;27.65;;;24.80;;
51292;SDS011;37377;45.186;9.778;2023-05-20T06:45:12;27.88;;;24.30;;
51292;SDS011;37377;45.186;9.778;2023-05-20T06:47:49;30.08;;;26.25;;
51292;SDS011;37377;45.186;9.778;2023-05-20T06:50:16;30.88;;;26.27;;
51292;SDS011;37377;45.186;9.778;2023-05-20T06:52:43;30.67;;;26.23;;
51292;SDS011;37377;45.186;9.778;2023-05-20T06:55:14;27.98;;;24.48;;
51292;SDS011;37377;45.186;9.778;2023-05-20T06:57:42;30.25;;;25.33;;
51292;SDS011;37377;45.186;9.778;2023-05-20T07:00:11;31.27;;;25.08;;
51292;SDS011;37377;45.186;9.778;2023-05-20T07:02:41;30.75;;;25.38;;
51292;SDS011;37377;45.186;9.778;2023-05-20T07:05:10;29.00;;;25.90;;
51292;SDS011;37377;45.186;9.778;2023-05-20T07:07:38;30.15;;;25.85;;
51292;SDS011;37377;45.186;9.778;2023-05-20T07:10:05;33.13;;;26.02;;
51292;SDS011;37377;45.186;9.778;2023-05-20T07:12:32;29.73;;;25.20;;
51292;SDS011;37377;45.186;9.778;2023-05-20T07:15:02;28.00;;;25.08;;
51292;SDS011;37377;45.186;9.778;2023-05-20T07:17:30;28.30;;;25.25;;
51292;SDS011;37377;45.186;9.778;2023-05-20T07:19:57;26.50;;;23.80;;
51292;SDS011;37377;45.186;9.778;2023-05-20T07:22:24;27.88;;;24.52;;
51292;SDS011;37377;45.186;9.778;2023-05-20T07:25:03;28.38;;;24.75;;
51292;SDS011;37377;45.186;9.778;2023-05-20T07:27:30;28.75;;;25.27;;
51292;SDS011;37377;45.186;9.778;2023-05-20T07:29:57;30.33;;;24.88;;
51292;SDS011;37377;45.186;9.778;2023-05-20T07:32:24;27.17;;;23.90;;
51292;SDS011;37377;45.186;9.778;2023-05-20T07:34:52;25.80;;;23.23;;
51292;SDS011;37377;45.186;9.778;2023-05-20T07:37:19;27.27;;;23.95;;
51292;SDS011;37377;45.186;9.778;2023-05-20T07:39:46;29.83;;;25.40;;
51292;SDS011;37377;45.186;9.778;2023-05-20T07:42:12;26.85;;;23.75;;
51292;SDS011;37377;45.186;9.778;2023-05-20T07:44:43;28.52;;;24.48;;
51292;SDS011;37377;45.186;9.778;2023-05-20T07:47:11;27.30;;;22.88;;
51292;SDS011;37377;45.186;9.778;2023-05-20T07:49:38;26.40;;;23.05;;
51292;SDS011;37377;45.186;9.778;2023-05-20T07:52:06;26.25;;;23.48;;
51292;SDS011;37377;45.186;9.778;2023-05-20T07:54:33;31.30;;;23.80;;
51292;SDS011;37377;45.186;9.778;2023-05-20T07:57:00;25.45;;;22.50;;
51292;SDS011;37377;45.186;9.778;2023-05-20T07:59:28;25.23;;;22.20;;
51292;SDS011;37377;45.186;9.778;2023-05-20T08:01:57;24.58;;;21.90;;
51292;SDS011;37377;45.186;9.778;2023-05-20T08:04:24;23.95;;;21.45;;
51292;SDS011;37377;45.186;9.778;2023-05-20T08:06:53;26.73;;;21.80;;
51292;SDS011;37377;45.186;9.778;2023-05-20T08:09:30;27.42;;;21.77;;
51292;SDS011;37377;45.186;9.778;2023-05-20T08:11:57;28.25;;;22.40;;
51292;SDS011;37377;45.186;9.778;2023-05-20T08:14:25;25.08;;;22.33;;
51292;SDS011;37377;45.186;9.778;2023-05-20T08:16:53;26.58;;;21.77;;
51292;SDS011;37377;45.186;9.778;2023-05-20T08:19:21;24.23;;;21.10;;
51292;SDS011;37377;45.186;9.778;2023-05-20T08:21:48;29.33;;;22.50;;
51292;SDS011;37377;45.186;9.778;2023-05-20T08:24:16;26.65;;;21.85;;
51292;SDS011;37377;45.186;9.778;2023-05-20T08:26:43;34.60;;;22.20;;
51292;SDS011;37377;45.186;9.778;2023-05-20T08:29:12;23.63;;;21.10;;
51292;SDS011;37377;45.186;9.778;2023-05-20T08:31:39;25.70;;;22.00;;
51292;SDS011;37377;45.186;9.778;2023-05-20T08:34:06;24.85;;;21.40;;
51292;SDS011;37377;45.186;9.778;2023-05-20T08:36:33;21.88;;;19.08;;
51292;SDS011;37377;45.186;9.778;2023-05-20T08:39:03;22.00;;;18.33;;
51292;SDS011;37377;45.186;9.778;2023-05-20T08:41:30;22.40;;;18.63;;
51292;SDS011;37377;45.186;9.778;2023-05-20T08:43:58;24.75;;;16.92;;
51292;SDS011;37377;45.186;9.778;2023-05-20T08:46:27;24.45;;;18.13;;
51292;SDS011;37377;45.186;9.778;2023-05-20T08:48:55;26.65;;;18.50;;
51292;SDS011;37377;45.186;9.778;2023-05-20T08:51:22;26.60;;;21.73;;
51292;SDS011;37377;45.186;9.778;2023-05-20T08:53:51;24.33;;;21.52;;
51292;SDS011;37377;45.186;9.778;2023-05-20T08:56:18;25.83;;;20.75;;
51292;SDS011;37377;45.186;9.778;2023-05-20T08:58:45;22.38;;;19.60;;
51292;SDS011;37377;45.186;9.778;2023-05-20T09:01:12;26.77;;;21.50;;
51292;SDS011;37377;45.186;9.778;2023-05-20T09:03:39;18.80;;;15.57;;
51292;SDS011;37377;45.186;9.778;2023-05-20T09:06:07;19.95;;;13.93;;
51292;SDS011;37377;45.186;9.778;2023-05-20T09:08:34;18.63;;;14.70;;
51292;SDS011;37377;45.186;9.778;2023-05-20T09:11:01;16.42;;;14.55;;
51292;SDS011;37377;45.186;9.778;2023-05-20T09:13:29;15.75;;;14.25;;
51292;SDS011;37377;45.186;9.778;2023-05-20T09:15:58;16.40;;;14.70;;
51292;SDS011;37377;45.186;9.778;2023-05-20T09:18:25;16.00;;;14.30;;
51292;SDS011;37377;45.186;9.778;2023-05-20T09:20:52;15.77;;;14.32;;
51292;SDS011;37377;45.186;9.778;2023-05-20T09:23:19;16.55;;;14.82;;
51292;SDS011;37377;45.186;9.778;2023-05-20T09:25:48;23.58;;;18.85;;
51292;SDS011;37377;45.186;9.778;2023-05-20T09:28:15;19.85;;;15.23;;
51292;SDS011;37377;45.186;9.778;2023-05-20T09:30:43;17.55;;;15.73;;
51292;SDS011;37377;45.186;9.778;2023-05-20T09:33:11;23.08;;;15.75;;
51292;SDS011;37377;45.186;9.778;2023-05-20T09:35:40;19.23;;;15.32;;
51292;SDS011;37377;45.186;9.778;2023-05-20T09:38:08;19.85;;;15.80;;
51292;SDS011;37377;45.186;9.778;2023-05-20T09:40:37;20.45;;;15.70;;
51292;SDS011;37377;45.186;9.778;2023-05-20T09:43:06;17.10;;;14.18;;
51292;SDS011;37377;45.186;9.778;2023-05-20T09:45:33;19.05;;;15.07;;
51292;SDS011;37377;45.186;9.778;2023-05-20T09:48:01;21.55;;;15.02;;
51292;SDS011;37377;45.186;9.778;2023-05-20T09:50:29;18.35;;;16.50;;
51292;SDS011;37377;45.186;9.778;2023-05-20T09:52:56;19.20;;;17.08;;
51292;SDS011;37377;45.186;9.778;2023-05-20T09:55:27;18.75;;;14.50;;
51292;SDS011;37377;45.186;9.778;2023-05-20T09:57:55;17.35;;;15.65;;
51292;SDS011;37377;45.186;9.778;2023-05-20T10:00:22;15.23;;;13.82;;
51292;SDS011;37377;45.186;9.778;2023-05-20T10:02:50;19.55;;;14.65;;
51292;SDS011;37377;45.186;9.778;2023-05-20T10:10:24;15.82;;;14.18;;
51292;SDS011;37377;45.186;9.778;2023-05-20T10:15:32;16.23;;;14.70;;
51292;SDS011;37377;45.186;9.778;2023-05-20T10:18:07;16.30;;;14.63;;
51292;SDS011;37377;45.186;9.778;2023-05-20T10:20:45;15.25;;;13.75;;
51292;SDS011;37377;45.186;9.778;2023-05-20T10:27:50;18.17;;;15.00;;
51292;SDS011;37377;45.186;9.778;2023-05-20T10:30:27;16.00;;;12.75;;
51292;SDS011;37377;45.186;9.778;2023-05-20T10:33:04;13.38;;;11.98;;
51292;SDS011;37377;45.186;9.778;2023-05-20T10:35:45;13.10;;;11.90;;
51292;SDS011;37377;45.186;9.778;2023-05-20T10:38:12;17.77;;;13.30;;
51292;SDS011;37377;45.186;9.778;2023-05-20T10:41:30;14.60;;;12.65;;
51292;SDS011;37377;45.186;9.778;2023-05-20T10:44:11;15.70;;;12.45;;
51292;SDS011;37377;45.186;9.778;2023-05-20T10:47:04;15.20;;;13.23;;
51292;SDS011;37377;45.186;9.778;2023-05-20T10:50:00;15.23;;;12.93;;
51292;SDS011;37377;45.186;9.778;2023-05-20T10:52:32;14.50;;;12.93;;
51292;SDS011;37377;45.186;9.778;2023-05-20T10:54:59;14.65;;;13.35;;
51292;SDS011;37377;45.186;9.778;2023-05-20T10:57:37;15.48;;;13.88;;
51292;SDS011;37377;45.186;9.778;2023-05-20T11:00:13;18.98;;;13.93;;
51292;SDS011;37377;45.186;9.778;2023-05-20T11:02:42;19.80;;;14.77;;
51292;SDS011;37377;45.186;9.778;2023-05-20T11:05:26;14.07;;;12.70;;
51292;SDS011;37377;45.186;9.778;2023-05-20T11:08:01;16.02;;;13.27;;
51292;SDS011;37377;45.186;9.778;2023-05-20T11:10:40;15.60;;;13.88;;
51292;SDS011;37377;45.186;9.778;2023-05-20T11:13:24;16.52;;;14.88;;
51292;SDS011;37377;45.186;9.778;2023-05-20T11:16:00;14.88;;;13.38;;
51292;SDS011;37377;45.186;9.778;2023-05-20T11:18:31;15.43;;;12.70;;
51292;SDS011;37377;45.186;9.778;2023-05-20T11:21:13;17.38;;;13.38;;
51292;SDS011;37377;45.186;9.778;2023-05-20T11:23:46;14.02;;;12.82;;
51292;SDS011;37377;45.186;9.778;2023-05-20T11:26:19;16.07;;;12.80;;
51292;SDS011;37377;45.186;9.778;2023-05-20T11:28:57;18.40;;;14.30;;
51292;SDS011;37377;45.186;9.778;2023-05-20T11:31:34;13.95;;;12.55;;
51292;SDS011;37377;45.186;9.778;2023-05-20T11:34:04;15.57;;;14.27;;
51292;SDS011;37377;45.186;9.778;2023-05-20T11:36:58;16.67;;;13.50;;
51292;SDS011;37377;45.186;9.778;2023-05-20T11:39:29;17.98;;;13.68;;
51292;SDS011;37377;45.186;9.778;2023-05-20T11:42:13;13.82;;;12.43;;
51292;SDS011;37377;45.186;9.778;2023-05-20T11:44:44;14.73;;;13.32;;
51292;SDS011;37377;45.186;9.778;2023-05-20T11:47:11;15.35;;;13.77;;
51292;SDS011;37377;45.186;9.778;2023-05-20T11:49:42;14.60;;;13.02;;
51292;SDS011;37377;45.186;9.778;2023-05-20T11:52:09;13.88;;;11.63;;
51292;SDS011;37377;45.186;9.778;2023-05-20T11:54:38;13.32;;;12.07;;
51292;SDS011;37377;45.186;9.778;2023-05-20T11:57:41;13.93;;;12.60;;
51292;SDS011;37377;45.186;9.778;2023-05-20T12:00:09;13.63;;;12.27;;
51292;SDS011;37377;45.186;9.778;2023-05-20T12:03:00;20.40;;;12.77;;
51292;SDS011;37377;45.186;9.778;2023-05-20T12:05:27;15.05;;;13.32;;
51292;SDS011;37377;45.186;9.778;2023-05-20T12:08:15;13.70;;;12.35;;
51292;SDS011;37377;45.186;9.778;2023-05-20T12:10:43;16.85;;;11.75;;
51292;SDS011;37377;45.186;9.778;2023-05-20T12:13:11;15.27;;;12.30;;
51292;SDS011;37377;45.186;9.778;2023-05-20T12:15:39;17.60;;;11.93;;
51292;SDS011;37377;45.186;9.778;2023-05-20T12:18:21;13.35;;;11.63;;
51292;SDS011;37377;45.186;9.778;2023-05-20T12:20:51;13.25;;;12.00;;
51292;SDS011;37377;45.186;9.778;2023-05-20T12:23:19;13.80;;;12.57;;
51292;SDS011;37377;45.186;9.778;2023-05-20T12:25:47;14.38;;;13.00;;
51292;SDS011;37377;45.186;9.778;2023-05-20T12:28:19;14.50;;;13.27;;
51292;SDS011;37377;45.186;9.778;2023-05-20T12:30:47;15.75;;;14.27;;
51292;SDS011;37377;45.186;9.778;2023-05-20T12:33:14;20.20;;;15.10;;
51292;SDS011;37377;45.186;9.778;2023-05-20T12:35:41;19.10;;;14.85;;
51292;SDS011;37377;45.186;9.778;2023-05-20T12:38:08;16.83;;;14.07;;
51292;SDS011;37377;45.186;9.778;2023-05-20T12:40:35;16.00;;;13.38;;
51292;SDS011;37377;45.186;9.778;2023-05-20T12:43:03;18.90;;;13.68;;
51292;SDS011;37377;45.186;9.778;2023-05-20T12:45:34;18.88;;;13.50;;
51292;SDS011;37377;45.186;9.778;2023-05-20T12:48:01;17.35;;;13.35;;
51292;SDS011;37377;45.186;9.778;2023-05-20T12:50:28;18.75;;;13.02;;
51292;SDS011;37377;45.186;9.778;2023-05-20T12:52:57;14.57;;;13.13;;
51292;SDS011;37377;45.186;9.778;2023-05-20T12:55:24;15.70;;;14.23;;
51292;SDS011;37377;45.186;9.778;2023-05-20T12:57:53;17.60;;;14.05;;
51292;SDS011;37377;45.186;9.778;2023-05-20T13:00:19;17.90;;;14.30;;
51292;SDS011;37377;45.186;9.778;2023-05-20T13:02:47;16.25;;;14.20;;
51292;SDS011;37377;45.186;9.778;2023-05-20T13:05:14;15.38;;;13.65;;
51292;SDS011;37377;45.186;9.778;2023-05-20T13:07:41;15.95;;;14.45;;
51292;SDS011;37377;45.186;9.778;2023-05-20T13:10:12;16.33;;;14.70;;
51292;SDS011;37377;45.186;9.778;2023-05-20T13:12:39;16.52;;;14.93;;
51292;SDS011;37377;45.186;9.778;2023-05-20T13:15:12;17.95;;;14.00;;
51292;SDS011;37377;45.186;9.778;2023-05-20T13:17:40;22.70;;;14.23;;
51292;SDS011;37377;45.186;9.778;2023-05-20T13:20:09;18.65;;;13.93;;
51292;SDS011;37377;45.186;9.778;2023-05-20T13:22:45;19.00;;;14.07;;
51292;SDS011;37377;45.186;9.778;2023-05-20T13:25:12;18.88;;;14.05;;
51292;SDS011;37377;45.186;9.778;2023-05-20T13:27:39;15.65;;;14.15;;
51292;SDS011;37377;45.186;9.778;2023-05-20T13:30:06;17.00;;;15.15;;
51292;SDS011;37377;45.186;9.778;2023-05-20T13:32:33;19.15;;;14.13;;
51292;SDS011;37377;45.186;9.778;2023-05-20T13:35:00;16.02;;;14.23;;
51292;SDS011;37377;45.186;9.778;2023-05-20T13:37:27;16.10;;;14.40;;
51292;SDS011;37377;45.186;9.778;2023-05-20T13:39:56;16.38;;;14.88;;
51292;SDS011;37377;45.186;9.778;2023-05-20T13:42:23;15.70;;;14.23;;
51292;SDS011;37377;45.186;9.778;2023-05-20T13:44:50;17.42;;;13.90;;
51292;SDS011;37377;45.186;9.778;2023-05-20T13:47:17;14.48;;;13.18;;
51292;SDS011;37377;45.186;9.778;2023-05-20T13:49:44;16.45;;;14.35;;
51292;SDS011;37377;45.186;9.778;2023-05-20T13:52:11;18.80;;;14.57;;
51292;SDS011;37377;45.186;9.778;2023-05-20T13:54:39;16.52;;;14.70;;
51292;SDS011;37377;45.186;9.778;2023-05-20T13:57:08;20.15;;;15.48;;
51292;SDS011;37377;45.186;9.778;2023-05-20T13:59:35;16.50;;;14.85;;
51292;SDS011;37377;45.186;9.778;2023-05-20T14:02:02;17.17;;;15.57;;
51292;SDS011;37377;45.186;9.778;2023-05-20T14:04:29;16.30;;;14.70;;
51292;SDS011;37377;45.186;9.778;2023-05-20T14:07:05;17.15;;;14.38;;
51292;SDS011;37377;45.186;9.778;2023-05-20T14:09:35;15.48;;;13.98;;
51292;SDS011;37377;45.186;9.778;2023-05-20T14:12:03;16.23;;;14.27;;
51292;SDS011;37377;45.186;9.778;2023-05-20T14:14:30;15.82;;;14.23;;
51292;SDS011;37377;45.186;9.778;2023-05-20T14:16:56;16.92;;;14.57;;
51292;SDS011;37377;45.186;9.778;2023-05-20T14:19:24;19.25;;;14.77;;
51292;SDS011;37377;45.186;9.778;2023-05-20T14:21:52;15.57;;;14.18;;
51292;SDS011;37377;45.186;9.778;2023-05-20T14:24:19;15.85;;;14.20;;
51292;SDS011;37377;45.186;9.778;2023-05-20T14:26:49;21.08;;;14.10;;
51292;SDS011;37377;45.186;9.778;2023-05-20T14:29:16;15.82;;;14.35;;
51292;SDS011;37377;45.186;9.778;2023-05-20T14:31:43;15.73;;;14.07;;
51292;SDS011;37377;45.186;9.778;2023-05-20T14:34:10;23.40;;;15.10;;
51292;SDS011;37377;45.186;9.778;2023-05-20T14:36:38;15.95;;;14.35;;
51292;SDS011;37377;45.186;9.778;2023-05-20T14:39:05;15.20;;;13.80;;
51292;SDS011;37377;45.186;9.778;2023-05-20T14:41:33;15.32;;;13.80;;
51292;SDS011;37377;45.186;9.778;2023-05-20T14:44:00;15.43;;;13.65;;
51292;SDS011;37377;45.186;9.778;2023-05-20T14:46:27;16.02;;;14.73;;
51292;SDS011;37377;45.186;9.778;2023-05-20T14:48:54;15.88;;;14.10;;
51292;SDS011;37377;45.186;9.778;2023-05-20T14:51:22;14.68;;;13.15;;